Portada
METAR-TAF:

METAR-TAF

Aeropuertos :

Sakakah, Arabia Saudita

latitud: 29-47N, longitud: 040-06E, altitud: 689 m

Observación

El informe se hizo hace 1 hora y 11 minutos, a las 04:00 UTC
Viento 3 kt del oeste
Temperatura 9°C
Humedad 53%
Presión 1021 hPa
Visibilidad 10 km o más
sin nubes por debajo de 1500 m y sin presencia de cumulonimbus.

METAR: OESK 090400Z 27003KT CAVOK 09/00 Q1021

Hora: 08:11 (05:11 UTC)

Pronóstico

El informe se hizo hace 6 horas y 11 minutos, a las 23:00 UTC
Pronóstico válido del 09 a las 00 UTC al 10 a las 06 UTC
Viento 3 kt con dirección variable
Visibilidad 10 km o más
sin nubes por debajo de 1500 m y sin presencia de cumulonimbus.
Evolucionando progresivamente
del 09 a las 08 UTC al 09 a las 10 UTC
Viento 12 kt del oeste-noroeste
Evolucionando progresivamente
del 09 a las 20 UTC al 09 a las 22 UTC
Viento 3 kt con dirección variable

TAF: OESK 082300Z 0900/1006 VRB03KT CAVOK BECMG 0908/0910 30012KT BECMG 0920/0922 VRB03KT

Observaciones y pronósticos meteorológicos de más de 4000 aeropuertos (mensajes METAR y TAF).

Los puntos amarillos y rojos representan las estaciones disponibles.

Ponga el ratón en el punto deseado para ver el nombre de la estación.

Haga clic para ver las observaciones y los pronósticos meteorológicos.

Para cambiar el mapa : haga clic en los botones verdes con una cruz de color negro para hacer un zoom, en el botón verde con un guión para alejar o en las flechas verdes para mapas adyacentes.


METAR-TAF: